Flight Track Log - Related Links

Times and Time Zones

All times are in EDT time to prevent confusion due to time zone crossing. See the N68JV flight status page for this flight to view local times or setup timezone preferences in your user account.

Time Position Orientation Groundspeed Altitude Reporting Facility
EDT Latitude Longitude Course Direction KTS MPH feet Rate Location/Type
Mon 06:30:19 PM 30.4214 -86.3011 39° Northeast 272 313 8,600  Level Jacksonville Center
Mon 06:31:18 PM 30.4989 -86.2942 North 258 297 10,900 2,218 Climbing Jacksonville Center
Mon 06:32:18 PM 30.5781 -86.2922 North 269 310 13,000 2,150 Climbing Jacksonville Center
Mon 06:33:18 PM 30.6661 -86.2856 North 295 339 15,200 2,250 Climbing Jacksonville Center
Mon 06:34:00 PM 30.8084 -86.9167 265° West  Level FlightAware Approximate
Mon 06:34:18 PM 30.7425 -86.3103 344° North 300 345 17,500  Level Jacksonville Center
Mon 06:35:19 PM 30.7906 -86.3844 307° West 271 312 19,600 2,250 Climbing Jacksonville Center
Mon 06:36:18 PM 30.8261 -86.4656 297° West 271 312 22,000 2,250 Climbing Jacksonville Center
Mon 06:37:19 PM 30.8656 -86.5419 301° West 271 312 24,100 1,700 Climbing Jacksonville Center
Mon 06:38:18 PM 30.9006 -86.6281 295° West 285 328 25,400 1,500 Climbing Jacksonville Center
Mon 06:39:19 PM 30.9500 -86.7244 301° West 312 359 27,100 1,537 Climbing Jacksonville Center
Mon 06:40:19 PM 30.9972 -86.8208 300° West 324 373 28,500 1,310 Climbing Jacksonville Center
Mon 06:42:13 PM 31.0797 -86.9992 298° West 344 396 30,900 1,234 Climbing Houston Center
Mon 06:43:14 PM 31.1214 -87.0889 298° West 345 397 32,100 1,171 Climbing Houston Center
Mon 06:44:16 PM 31.1458 -87.1981 285° West 350 403 33,300 919 Climbing Houston Center
Mon 06:45:18 PM 31.1758 -87.3292 285° West 353 406 34,000 339 Climbing Houston Center
Mon 06:46:20 PM 31.2028 -87.4497 285° West 382 440 34,000  Level Houston Center
Mon 06:47:21 PM 31.2319 -87.5767 285° West 405 466 34,000  Level Houston Center
Mon 06:48:23 PM 31.2611 -87.7078 285° West 418 481 34,000  Level Houston Center
Mon 06:49:25 PM 31.2914 -87.8411 285° West 425 489 34,000  Level Houston Center
Mon 06:50:26 PM 31.3206 -87.9772 284° West 435 501 34,000  Level Houston Center
Mon 06:51:28 PM 31.3561 -88.1408 284° West 438 504 34,000  Level Houston Center
Mon 06:52:30 PM 31.3842 -88.2786 283° West 441 507 34,000  Level Houston Center
Mon 06:53:31 PM 31.4139 -88.4147 284° West 438 504 34,000  Level Houston Center
Mon 06:54:33 PM 31.4408 -88.5503 283° West 430 495 34,000  Level Houston Center
Mon 06:55:35 PM 31.4700 -88.6847 284° West 428 493 34,000  Level Houston Center
Mon 06:56:36 PM 31.4986 -88.8219 284° West 434 499 34,000  Level Houston Center
Mon 06:57:38 PM 31.5339 -88.9858 284° West 435 501 34,000  Level Houston Center
Mon 06:58:40 PM 31.5625 -89.1203 284° West 431 496 34,000  Level Houston Center
Mon 06:59:41 PM 31.5897 -89.2572 283° West 433 498 34,000  Level Houston Center
Mon 07:00:43 PM 31.6169 -89.3947 283° West 435 501 34,000  Level Houston Center
Mon 07:01:44 PM 31.6478 -89.5422 284° West 439 505 34,000  Level Houston Center
Mon 07:02:46 PM 31.6753 -89.6764 284° West 431 496 34,000  Level Houston Center
Mon 07:03:48 PM 31.7028 -89.8100 284° West 426 490 34,000 -49 Level Houston Center
Mon 07:04:49 PM 31.7297 -89.9467 283° West 433 498 33,900  Descending Houston Center
Mon 07:05:51 PM 31.7558 -90.0769 283° West 418 481 34,000 44 Climbing Houston Center
Mon 07:07:05 PM 31.7911 -90.2622 283° West 417 480 34,000  Level Houston Center
Mon 07:08:06 PM 31.8181 -90.3872 284° West 407 468 34,000  Level Houston Center
Mon 07:09:08 PM 31.8425 -90.5158 283° West 408 470 34,000  Level Houston Center
Mon 07:10:10 PM 31.8683 -90.6486 283° West 417 480 34,000  Level Houston Center
Mon 07:11:11 PM 31.8958 -90.7856 283° West 419 482 34,000  Level Houston Center
Mon 07:12:13 PM 31.9219 -90.9192 283° West 420 483 34,000  Level Houston Center
Mon 07:13:14 PM 31.9475 -91.0514 283° West 418 481 34,000  Level Houston Center
Mon 07:14:16 PM 31.9711 -91.1850 282° West 419 482 34,000  Level Houston Center
Mon 07:15:18 PM 32.0017 -91.3458 283° West 421 484 34,000  Level Houston Center
Mon 07:16:20 PM 32.0269 -91.4800 283° West 421 484 34,000  Level Houston Center
Mon 07:17:21 PM 32.0522 -91.6147 283° West 423 487 34,000  Level Houston Center
Mon 07:18:23 PM 32.0767 -91.7472 282° West 418 481 34,000  Level Houston Center
Mon 07:19:25 PM 32.1011 -91.8797 282° West 415 478 34,000  Level Houston Center
Mon 07:20:26 PM 32.1250 -92.0131 282° West 417 480 34,000  Level Houston Center
Mon 07:21:28 PM 32.1503 -92.1514 282° West 415 478 34,000 -242 Level Houston Center
Mon 07:22:30 PM 32.1744 -92.2858 282° West 418 481 33,500 -1,463 Descending Houston Center
Mon 07:23:31 PM 32.2017 -92.4394 282° West 403 464 31,000 -2,341 Descending Houston Center
Mon 07:24:33 PM 32.2233 -92.5600 282° West 384 442 28,700 -2,177 Descending Houston Center
Mon 07:25:35 PM 32.2442 -92.6756 282° West 382 440 26,500 -2,244 Descending Houston Center
Mon 07:26:36 PM 32.2639 -92.7894 282° West 364 419 24,100 -2,585 Descending Houston Center
Mon 07:27:38 PM 32.2850 -92.9247 280° West 354 407 21,200 -2,613 Descending Houston Center
Mon 07:28:40 PM 32.2864 -93.0525 271° West 386 444 18,700 -2,518 Descending Houston Center
Mon 07:29:30 PM 32.2839 -93.1722 269° West 394 453 16,500 -2,541 Descending Fort Worth Center
Mon 07:30:31 PM 32.3108 -93.2889 285° West 366 421 14,000 -2,182 Descending Fort Worth Center
Mon 07:31:31 PM 32.3331 -93.3961 284° West 345 397 12,100 -1,835 Descending Fort Worth Center
Mon 07:32:32 PM 32.3550 -93.4933 285° West 273 314 10,300 -1,640 Descending Fort Worth Center
Mon 07:33:50 PM 32.3769 -93.5958 284° West 281 323 8,300 -1,636 Descending Fort Worth Center
Mon 07:34:33 PM 32.3872 -93.6642 280° West 268 308 7,000 -1,650 Descending Fort Worth Center
Mon 07:35:50 PM 32.4108 -93.7592 286° West 262 302 5,000 -992 Descending Fort Worth Center
Mon 07:36:34 PM 32.4211 -93.8278 280° West 250 288 5,000 -571 Level Fort Worth Center
Mon 07:37:35 PM 32.4403 -93.9106 285° West 259 298 4,000 -992 Descending Fort Worth Center
Mon 07:38:35 PM 32.4550 -93.9936 282° West 257 296 3,000 -496 Descending Fort Worth Center
Mon 07:39:36 PM 32.4722 -94.0842 283° West 265 305 3,000  Level Fort Worth Center
Mon 07:40:37 PM 32.4889 -94.1650 284° West 256 295 3,000 -496 Level Fort Worth Center
Mon 07:41:37 PM 32.5031 -94.2333 284° West 216 249 2,000 -545 Descending Fort Worth Center
Mon 07:42:38 PM 32.5275 -94.2892 297° West 192 221 1,900 -451 Descending Fort Worth Center
Mon 07:43:50 PM 32.5572 -94.3153 323° Northwest 139 160 1,000 -545 Descending Fort Worth Center
Mon 07:44:39 PM 32.5303 -94.3161 181° South 107 123 800 -245 Descending Fort Worth Center

Login

Don't have an account? Register now (free) for customized features, flight alerts, and more!